Ana Sayfa
METAR-TAF:

METAR-TAF

Havaalanları :

Ivano-Frankivsk Uluslararası Havalimanı

İvano-Frankivsk, Ukrayna

Enlem: 48-53-03N, Boylam: 024-41-10E, yükseklik: 280 m

Güncel hava durumu gözlemi

Rapor saat 09:00 UTC de 41 dakika önce yapıldı.
Rüzgar değişken yönden 2 kt
Sıcaklık 12°C
Nem 40%
Basınç 1017 hPa
Görüş mesafesi 10 km veya daha fazla
1500 m altında bulut yok ve kümülonimbus yok

METAR: UKLI 280900Z VRB01MPS CAVOK 12/M01 Q1017 NOSIG

Saat: 11:41 (09:41 UTC)

Tahmin

Rapor saat 08:01 UTC de 1 saat ve 40 dakika önce yapıldı.
Ayın 28'si saat 09 UTC'den ayın 28'si saat 18 UTC'ye kadar geçerli Tahmin
Rüzgar güneybatıdan 10 kt
Görüş mesafesi 10 km veya daha fazla
2000 ft yükseklikte parçalı çok bulutlu

TAF: UKLI 280801Z 2809/2818 23005MPS 9999 BKN020 TX13/2813Z TN01/2818Z

4.000'den fazla havaalanı için hava durumu gözlemleri ve tahminleri (METAR ve TAF raporları).

Kullanılabilir istasyonlar harita üzerinde sarı ve kırmızı noktalarla gösterilir.

İstasyonun adını görmek için fareyi noktanın üzerinde gezdirin.

Sonrasında hava gözlem ve tahminlerini görmek için tıklayın.

Haritayı değiştirmek için: yaklaştırmak için siyah artı işaretli yeşil düğmeye ve uzaklaştırmak için de eksi işaretli düğmeye hızla tıklayın; bitişik haritalar için yeşil okları kullanın.


METAR-TAF: